sensor_id;sensor_type;location;lat;lon;timestamp;P1;durP1;ratioP1;P2;durP2;ratioP2
11731;SDS011;5922;53.734;10.258;2024-01-07T00:01:53;2.17;;;1.50;;
11731;SDS011;5922;53.734;10.258;2024-01-07T00:04:20;3.10;;;1.70;;
11731;SDS011;5922;53.734;10.258;2024-01-07T00:06:47;1.33;;;1.17;;
11731;SDS011;5922;53.734;10.258;2024-01-07T00:09:15;2.63;;;1.93;;
11731;SDS011;5922;53.734;10.258;2024-01-07T00:11:42;4.17;;;2.10;;
11731;SDS011;5922;53.734;10.258;2024-01-07T00:14:11;3.27;;;2.13;;
11731;SDS011;5922;53.734;10.258;2024-01-07T00:16:39;3.00;;;1.47;;
11731;SDS011;5922;53.734;10.258;2024-01-07T00:19:06;3.30;;;1.80;;
11731;SDS011;5922;53.734;10.258;2024-01-07T00:21:34;2.57;;;1.80;;
11731;SDS011;5922;53.734;10.258;2024-01-07T00:24:01;2.60;;;1.80;;
11731;SDS011;5922;53.734;10.258;2024-01-07T00:26:28;6.47;;;2.10;;
11731;SDS011;5922;53.734;10.258;2024-01-07T00:28:55;3.13;;;2.10;;
11731;SDS011;5922;53.734;10.258;2024-01-07T00:31:24;3.80;;;2.10;;
11731;SDS011;5922;53.734;10.258;2024-01-07T00:33:51;2.90;;;2.13;;
11731;SDS011;5922;53.734;10.258;2024-01-07T00:36:18;1.70;;;1.20;;
11731;SDS011;5922;53.734;10.258;2024-01-07T00:38:45;2.60;;;1.87;;
11731;SDS011;5922;53.734;10.258;2024-01-07T00:41:13;2.20;;;2.00;;
11731;SDS011;5922;53.734;10.258;2024-01-07T00:43:40;6.10;;;2.43;;
11731;SDS011;5922;53.734;10.258;2024-01-07T00:46:07;4.60;;;2.20;;
11731;SDS011;5922;53.734;10.258;2024-01-07T00:48:35;5.83;;;2.27;;
11731;SDS011;5922;53.734;10.258;2024-01-07T00:51:03;4.30;;;1.80;;
11731;SDS011;5922;53.734;10.258;2024-01-07T00:53:30;3.37;;;2.00;;
11731;SDS011;5922;53.734;10.258;2024-01-07T00:55:58;3.27;;;2.20;;
11731;SDS011;5922;53.734;10.258;2024-01-07T00:58:25;3.37;;;1.33;;
11731;SDS011;5922;53.734;10.258;2024-01-07T01:00:52;3.00;;;2.00;;
11731;SDS011;5922;53.734;10.258;2024-01-07T01:03:19;3.63;;;2.20;;
11731;SDS011;5922;53.734;10.258;2024-01-07T01:05:48;6.23;;;2.20;;
11731;SDS011;5922;53.734;10.258;2024-01-07T01:08:15;2.70;;;1.80;;
11731;SDS011;5922;53.734;10.258;2024-01-07T01:10:42;1.83;;;1.17;;
11731;SDS011;5922;53.734;10.258;2024-01-07T01:13:09;3.10;;;2.00;;
11731;SDS011;5922;53.734;10.258;2024-01-07T01:15:36;2.83;;;1.90;;
11731;SDS011;5922;53.734;10.258;2024-01-07T01:18:04;4.33;;;2.00;;
11731;SDS011;5922;53.734;10.258;2024-01-07T01:20:31;2.43;;;1.90;;
11731;SDS011;5922;53.734;10.258;2024-01-07T01:22:59;4.13;;;2.13;;
11731;SDS011;5922;53.734;10.258;2024-01-07T01:25:27;3.73;;;2.17;;
11731;SDS011;5922;53.734;10.258;2024-01-07T01:27:54;3.27;;;1.97;;
11731;SDS011;5922;53.734;10.258;2024-01-07T01:30:22;2.40;;;1.80;;
11731;SDS011;5922;53.734;10.258;2024-01-07T01:32:49;3.83;;;1.90;;
11731;SDS011;5922;53.734;10.258;2024-01-07T01:35:16;3.20;;;1.80;;
11731;SDS011;5922;53.734;10.258;2024-01-07T01:37:43;4.63;;;1.73;;
11731;SDS011;5922;53.734;10.258;2024-01-07T01:40:12;2.30;;;1.90;;
11731;SDS011;5922;53.734;10.258;2024-01-07T01:42:42;2.17;;;1.70;;
11731;SDS011;5922;53.734;10.258;2024-01-07T01:45:10;2.40;;;1.90;;
11731;SDS011;5922;53.734;10.258;2024-01-07T01:47:37;2.70;;;1.67;;
11731;SDS011;5922;53.734;10.258;2024-01-07T01:50:05;1.90;;;1.63;;
11731;SDS011;5922;53.734;10.258;2024-01-07T01:52:33;1.83;;;1.60;;
11731;SDS011;5922;53.734;10.258;2024-01-07T01:55:01;3.63;;;2.20;;
11731;SDS011;5922;53.734;10.258;2024-01-07T01:57:32;2.90;;;1.77;;
11731;SDS011;5922;53.734;10.258;2024-01-07T02:00:00;3.27;;;2.00;;
11731;SDS011;5922;53.734;10.258;2024-01-07T02:02:29;2.80;;;1.40;;
11731;SDS011;5922;53.734;10.258;2024-01-07T02:04:59;4.07;;;2.00;;
11731;SDS011;5922;53.734;10.258;2024-01-07T02:07:26;3.00;;;2.00;;
11731;SDS011;5922;53.734;10.258;2024-01-07T02:09:54;2.73;;;1.63;;
11731;SDS011;5922;53.734;10.258;2024-01-07T02:12:21;2.37;;;1.90;;
11731;SDS011;5922;53.734;10.258;2024-01-07T02:14:49;2.10;;;1.70;;
11731;SDS011;5922;53.734;10.258;2024-01-07T02:17:17;4.17;;;1.80;;
11731;SDS011;5922;53.734;10.258;2024-01-07T02:19:44;2.00;;;1.60;;
11731;SDS011;5922;53.734;10.258;2024-01-07T02:22:11;4.27;;;1.90;;
11731;SDS011;5922;53.734;10.258;2024-01-07T02:24:40;3.13;;;1.80;;
11731;SDS011;5922;53.734;10.258;2024-01-07T02:27:07;4.03;;;1.53;;
11731;SDS011;5922;53.734;10.258;2024-01-07T02:29:34;2.23;;;1.80;;
11731;SDS011;5922;53.734;10.258;2024-01-07T02:32:02;3.00;;;2.10;;
11731;SDS011;5922;53.734;10.258;2024-01-07T02:34:29;1.93;;;1.30;;
11731;SDS011;5922;53.734;10.258;2024-01-07T02:36:56;2.07;;;1.30;;
11731;SDS011;5922;53.734;10.258;2024-01-07T02:39:23;1.67;;;1.53;;
11731;SDS011;5922;53.734;10.258;2024-01-07T02:41:52;1.93;;;1.37;;
11731;SDS011;5922;53.734;10.258;2024-01-07T02:44:19;1.43;;;1.10;;
11731;SDS011;5922;53.734;10.258;2024-01-07T02:46:46;3.20;;;1.60;;
11731;SDS011;5922;53.734;10.258;2024-01-07T02:49:13;2.27;;;1.63;;
11731;SDS011;5922;53.734;10.258;2024-01-07T02:51:41;2.63;;;1.50;;
11731;SDS011;5922;53.734;10.258;2024-01-07T02:54:10;3.53;;;1.60;;
11731;SDS011;5922;53.734;10.258;2024-01-07T02:56:37;2.23;;;1.57;;
11731;SDS011;5922;53.734;10.258;2024-01-07T02:59:06;2.17;;;1.60;;
11731;SDS011;5922;53.734;10.258;2024-01-07T03:01:33;1.43;;;1.33;;
11731;SDS011;5922;53.734;10.258;2024-01-07T03:04:05;3.67;;;1.27;;
11731;SDS011;5922;53.734;10.258;2024-01-07T03:06:32;2.73;;;1.47;;
11731;SDS011;5922;53.734;10.258;2024-01-07T03:09:00;1.53;;;1.43;;
11731;SDS011;5922;53.734;10.258;2024-01-07T03:11:27;2.47;;;1.50;;
11731;SDS011;5922;53.734;10.258;2024-01-07T03:13:55;3.67;;;1.60;;
11731;SDS011;5922;53.734;10.258;2024-01-07T03:16:24;1.43;;;1.30;;
11731;SDS011;5922;53.734;10.258;2024-01-07T03:18:52;3.17;;;1.30;;
11731;SDS011;5922;53.734;10.258;2024-01-07T03:21:20;1.97;;;1.40;;
11731;SDS011;5922;53.734;10.258;2024-01-07T03:23:48;1.47;;;1.00;;
11731;SDS011;5922;53.734;10.258;2024-01-07T03:26:15;3.80;;;1.47;;
11731;SDS011;5922;53.734;10.258;2024-01-07T03:28:43;2.23;;;1.50;;
11731;SDS011;5922;53.734;10.258;2024-01-07T03:31:11;3.40;;;1.30;;
11731;SDS011;5922;53.734;10.258;2024-01-07T03:33:40;1.10;;;1.00;;
11731;SDS011;5922;53.734;10.258;2024-01-07T03:36:08;1.33;;;1.10;;
11731;SDS011;5922;53.734;10.258;2024-01-07T03:38:35;3.60;;;1.40;;
11731;SDS011;5922;53.734;10.258;2024-01-07T03:41:03;2.13;;;1.40;;
11731;SDS011;5922;53.734;10.258;2024-01-07T03:43:31;2.30;;;1.50;;
11731;SDS011;5922;53.734;10.258;2024-01-07T03:45:59;2.77;;;1.20;;
11731;SDS011;5922;53.734;10.258;2024-01-07T03:48:26;2.43;;;0.90;;
11731;SDS011;5922;53.734;10.258;2024-01-07T03:50:54;1.60;;;1.50;;
11731;SDS011;5922;53.734;10.258;2024-01-07T03:53:22;2.67;;;1.30;;
11731;SDS011;5922;53.734;10.258;2024-01-07T03:55:49;2.30;;;1.30;;
11731;SDS011;5922;53.734;10.258;2024-01-07T03:58:16;1.43;;;1.33;;
11731;SDS011;5922;53.734;10.258;2024-01-07T04:00:43;1.53;;;1.30;;
11731;SDS011;5922;53.734;10.258;2024-01-07T04:03:10;3.37;;;1.50;;
11731;SDS011;5922;53.734;10.258;2024-01-07T04:05:38;3.83;;;1.73;;
11731;SDS011;5922;53.734;10.258;2024-01-07T04:08:08;2.73;;;1.20;;
11731;SDS011;5922;53.734;10.258;2024-01-07T04:10:36;4.10;;;1.37;;
11731;SDS011;5922;53.734;10.258;2024-01-07T04:13:03;2.67;;;1.60;;
11731;SDS011;5922;53.734;10.258;2024-01-07T04:15:31;2.90;;;1.50;;
11731;SDS011;5922;53.734;10.258;2024-01-07T04:18:00;2.80;;;1.23;;
11731;SDS011;5922;53.734;10.258;2024-01-07T04:20:28;3.73;;;1.67;;
11731;SDS011;5922;53.734;10.258;2024-01-07T04:22:55;1.40;;;1.27;;
11731;SDS011;5922;53.734;10.258;2024-01-07T04:25:23;1.53;;;1.40;;
11731;SDS011;5922;53.734;10.258;2024-01-07T04:27:51;1.93;;;1.40;;
11731;SDS011;5922;53.734;10.258;2024-01-07T04:30:18;3.20;;;1.60;;
11731;SDS011;5922;53.734;10.258;2024-01-07T04:32:45;2.47;;;1.40;;
11731;SDS011;5922;53.734;10.258;2024-01-07T04:35:12;1.70;;;1.30;;
11731;SDS011;5922;53.734;10.258;2024-01-07T04:37:40;2.33;;;1.40;;
11731;SDS011;5922;53.734;10.258;2024-01-07T04:40:07;3.03;;;1.30;;
11731;SDS011;5922;53.734;10.258;2024-01-07T04:42:36;4.77;;;1.47;;
11731;SDS011;5922;53.734;10.258;2024-01-07T04:45:03;2.43;;;1.47;;
11731;SDS011;5922;53.734;10.258;2024-01-07T04:47:32;1.80;;;1.40;;
11731;SDS011;5922;53.734;10.258;2024-01-07T04:49:59;1.60;;;1.27;;
11731;SDS011;5922;53.734;10.258;2024-01-07T04:52:27;1.40;;;1.30;;
11731;SDS011;5922;53.734;10.258;2024-01-07T04:54:54;3.20;;;1.13;;
11731;SDS011;5922;53.734;10.258;2024-01-07T04:57:21;3.10;;;1.40;;
11731;SDS011;5922;53.734;10.258;2024-01-07T04:59:50;1.93;;;1.10;;
11731;SDS011;5922;53.734;10.258;2024-01-07T05:02:18;3.40;;;1.50;;
11731;SDS011;5922;53.734;10.258;2024-01-07T05:04:45;2.43;;;1.30;;
11731;SDS011;5922;53.734;10.258;2024-01-07T05:07:12;1.97;;;1.43;;
11731;SDS011;5922;53.734;10.258;2024-01-07T05:09:39;2.40;;;1.70;;
11731;SDS011;5922;53.734;10.258;2024-01-07T05:12:06;2.37;;;1.43;;
11731;SDS011;5922;53.734;10.258;2024-01-07T05:14:34;2.20;;;1.60;;
11731;SDS011;5922;53.734;10.258;2024-01-07T05:17:03;1.70;;;1.30;;
11731;SDS011;5922;53.734;10.258;2024-01-07T05:19:31;2.17;;;1.30;;
11731;SDS011;5922;53.734;10.258;2024-01-07T05:21:58;2.03;;;1.60;;
11731;SDS011;5922;53.734;10.258;2024-01-07T05:24:25;1.83;;;1.43;;
11731;SDS011;5922;53.734;10.258;2024-01-07T05:26:52;3.37;;;1.40;;
11731;SDS011;5922;53.734;10.258;2024-01-07T05:29:20;2.20;;;1.57;;
11731;SDS011;5922;53.734;10.258;2024-01-07T05:31:47;2.90;;;1.60;;
11731;SDS011;5922;53.734;10.258;2024-01-07T05:34:16;3.23;;;1.40;;
11731;SDS011;5922;53.734;10.258;2024-01-07T05:36:43;2.37;;;1.77;;
11731;SDS011;5922;53.734;10.258;2024-01-07T05:39:10;1.50;;;1.40;;
11731;SDS011;5922;53.734;10.258;2024-01-07T05:41:37;2.60;;;1.57;;
11731;SDS011;5922;53.734;10.258;2024-01-07T05:44:06;1.50;;;1.37;;
11731;SDS011;5922;53.734;10.258;2024-01-07T05:46:34;2.33;;;1.30;;
11731;SDS011;5922;53.734;10.258;2024-01-07T05:49:01;2.67;;;1.50;;
11731;SDS011;5922;53.734;10.258;2024-01-07T05:51:29;2.30;;;1.50;;
11731;SDS011;5922;53.734;10.258;2024-01-07T05:53:56;1.90;;;1.60;;
11731;SDS011;5922;53.734;10.258;2024-01-07T05:56:24;2.80;;;1.43;;
11731;SDS011;5922;53.734;10.258;2024-01-07T05:58:51;3.93;;;1.60;;
11731;SDS011;5922;53.734;10.258;2024-01-07T06:01:18;2.17;;;1.40;;
11731;SDS011;5922;53.734;10.258;2024-01-07T06:03:46;2.43;;;1.67;;
11731;SDS011;5922;53.734;10.258;2024-01-07T06:06:14;3.53;;;1.40;;
11731;SDS011;5922;53.734;10.258;2024-01-07T06:08:43;6.43;;;1.60;;
11731;SDS011;5922;53.734;10.258;2024-01-07T06:11:10;9.20;;;1.60;;
11731;SDS011;5922;53.734;10.258;2024-01-07T06:13:43;2.30;;;1.70;;
11731;SDS011;5922;53.734;10.258;2024-01-07T06:16:10;2.37;;;1.60;;
11731;SDS011;5922;53.734;10.258;2024-01-07T06:18:38;1.97;;;1.73;;
11731;SDS011;5922;53.734;10.258;2024-01-07T06:21:05;3.10;;;2.10;;
11731;SDS011;5922;53.734;10.258;2024-01-07T06:23:32;4.77;;;2.50;;
11731;SDS011;5922;53.734;10.258;2024-01-07T06:26:02;3.80;;;2.10;;
11731;SDS011;5922;53.734;10.258;2024-01-07T06:28:29;2.50;;;2.30;;
11731;SDS011;5922;53.734;10.258;2024-01-07T06:30:56;4.80;;;2.77;;
11731;SDS011;5922;53.734;10.258;2024-01-07T06:33:24;4.43;;;2.73;;
11731;SDS011;5922;53.734;10.258;2024-01-07T06:35:51;5.33;;;2.43;;
11731;SDS011;5922;53.734;10.258;2024-01-07T06:38:18;4.20;;;2.50;;
11731;SDS011;5922;53.734;10.258;2024-01-07T06:40:45;3.30;;;2.10;;
11731;SDS011;5922;53.734;10.258;2024-01-07T06:43:14;6.73;;;2.60;;
11731;SDS011;5922;53.734;10.258;2024-01-07T06:45:41;3.70;;;2.33;;
11731;SDS011;5922;53.734;10.258;2024-01-07T06:48:09;6.63;;;2.60;;
11731;SDS011;5922;53.734;10.258;2024-01-07T06:50:36;4.20;;;2.27;;
11731;SDS011;5922;53.734;10.258;2024-01-07T06:53:03;5.00;;;2.70;;
11731;SDS011;5922;53.734;10.258;2024-01-07T06:55:30;3.87;;;2.40;;
11731;SDS011;5922;53.734;10.258;2024-01-07T06:57:57;4.90;;;2.50;;
11731;SDS011;5922;53.734;10.258;2024-01-07T07:00:26;2.70;;;2.10;;
11731;SDS011;5922;53.734;10.258;2024-01-07T07:02:53;3.33;;;2.60;;
11731;SDS011;5922;53.734;10.258;2024-01-07T07:05:21;3.50;;;2.40;;
11731;SDS011;5922;53.734;10.258;2024-01-07T07:07:48;3.73;;;2.20;;
11731;SDS011;5922;53.734;10.258;2024-01-07T07:10:15;5.33;;;2.40;;
11731;SDS011;5922;53.734;10.258;2024-01-07T07:12:42;4.93;;;2.30;;
11731;SDS011;5922;53.734;10.258;2024-01-07T07:15:09;4.20;;;2.20;;
11731;SDS011;5922;53.734;10.258;2024-01-07T07:17:38;4.10;;;2.30;;
11731;SDS011;5922;53.734;10.258;2024-01-07T07:20:06;4.17;;;2.17;;
11731;SDS011;5922;53.734;10.258;2024-01-07T07:22:33;4.93;;;2.23;;
11731;SDS011;5922;53.734;10.258;2024-01-07T07:25:00;4.03;;;2.20;;
11731;SDS011;5922;53.734;10.258;2024-01-07T07:27:28;2.60;;;1.90;;
11731;SDS011;5922;53.734;10.258;2024-01-07T07:29:55;3.80;;;2.30;;
11731;SDS011;5922;53.734;10.258;2024-01-07T07:32:22;5.03;;;2.40;;
11731;SDS011;5922;53.734;10.258;2024-01-07T07:34:51;3.87;;;2.37;;
11731;SDS011;5922;53.734;10.258;2024-01-07T07:37:18;5.10;;;2.67;;
11731;SDS011;5922;53.734;10.258;2024-01-07T07:39:45;5.03;;;2.50;;
11731;SDS011;5922;53.734;10.258;2024-01-07T07:42:12;5.93;;;2.87;;
11731;SDS011;5922;53.734;10.258;2024-01-07T07:44:39;5.07;;;2.80;;
11731;SDS011;5922;53.734;10.258;2024-01-07T07:47:07;6.67;;;2.70;;
11731;SDS011;5922;53.734;10.258;2024-01-07T07:49:36;4.70;;;2.87;;
11731;SDS011;5922;53.734;10.258;2024-01-07T07:52:07;5.90;;;3.43;;
11731;SDS011;5922;53.734;10.258;2024-01-07T07:54:34;5.20;;;3.00;;
11731;SDS011;5922;53.734;10.258;2024-01-07T07:57:03;4.00;;;2.17;;
11731;SDS011;5922;53.734;10.258;2024-01-07T07:59:31;3.37;;;2.30;;
11731;SDS011;5922;53.734;10.258;2024-01-07T08:01:58;3.53;;;2.60;;
11731;SDS011;5922;53.734;10.258;2024-01-07T08:04:25;3.73;;;2.60;;
11731;SDS011;5922;53.734;10.258;2024-01-07T08:06:52;3.10;;;2.50;;
11731;SDS011;5922;53.734;10.258;2024-01-07T08:09:22;3.23;;;2.23;;
11731;SDS011;5922;53.734;10.258;2024-01-07T08:11:50;2.87;;;2.13;;
11731;SDS011;5922;53.734;10.258;2024-01-07T08:14:17;3.47;;;2.60;;
11731;SDS011;5922;53.734;10.258;2024-01-07T08:16:45;3.73;;;2.20;;
11731;SDS011;5922;53.734;10.258;2024-01-07T08:19:12;2.77;;;2.20;;
11731;SDS011;5922;53.734;10.258;2024-01-07T08:21:39;3.60;;;2.30;;
11731;SDS011;5922;53.734;10.258;2024-01-07T08:24:06;3.90;;;2.50;;
11731;SDS011;5922;53.734;10.258;2024-01-07T08:26:36;3.63;;;2.20;;
11731;SDS011;5922;53.734;10.258;2024-01-07T08:29:04;4.67;;;2.40;;
11731;SDS011;5922;53.734;10.258;2024-01-07T08:31:31;4.83;;;2.30;;
11731;SDS011;5922;53.734;10.258;2024-01-07T08:33:58;2.80;;;2.33;;
11731;SDS011;5922;53.734;10.258;2024-01-07T08:36:26;6.17;;;2.43;;
11731;SDS011;5922;53.734;10.258;2024-01-07T08:38:53;2.40;;;2.13;;
11731;SDS011;5922;53.734;10.258;2024-01-07T08:41:20;4.47;;;2.60;;
11731;SDS011;5922;53.734;10.258;2024-01-07T08:43:49;3.03;;;2.20;;
11731;SDS011;5922;53.734;10.258;2024-01-07T08:46:16;2.63;;;2.23;;
11731;SDS011;5922;53.734;10.258;2024-01-07T08:48:44;3.87;;;2.60;;
11731;SDS011;5922;53.734;10.258;2024-01-07T08:51:12;4.63;;;3.40;;
11731;SDS011;5922;53.734;10.258;2024-01-07T08:53:39;4.57;;;2.70;;
11731;SDS011;5922;53.734;10.258;2024-01-07T08:56:07;3.67;;;2.57;;
11731;SDS011;5922;53.734;10.258;2024-01-07T08:58:34;3.73;;;2.57;;
11731;SDS011;5922;53.734;10.258;2024-01-07T09:01:03;4.63;;;2.87;;
11731;SDS011;5922;53.734;10.258;2024-01-07T09:03:30;5.33;;;3.30;;
11731;SDS011;5922;53.734;10.258;2024-01-07T09:05:57;5.00;;;3.30;;
11731;SDS011;5922;53.734;10.258;2024-01-07T09:08:25;3.60;;;2.63;;
11731;SDS011;5922;53.734;10.258;2024-01-07T09:10:52;5.00;;;2.53;;
11731;SDS011;5922;53.734;10.258;2024-01-07T09:13:19;2.47;;;2.20;;
11731;SDS011;5922;53.734;10.258;2024-01-07T09:15:46;4.13;;;2.40;;
11731;SDS011;5922;53.734;10.258;2024-01-07T09:18:16;4.33;;;2.33;;
11731;SDS011;5922;53.734;10.258;2024-01-07T09:20:43;3.00;;;2.20;;
11731;SDS011;5922;53.734;10.258;2024-01-07T09:23:11;2.83;;;2.40;;
11731;SDS011;5922;53.734;10.258;2024-01-07T09:25:40;4.90;;;3.60;;
11731;SDS011;5922;53.734;10.258;2024-01-07T09:28:08;6.57;;;4.03;;
11731;SDS011;5922;53.734;10.258;2024-01-07T09:30:35;3.60;;;2.50;;
11731;SDS011;5922;53.734;10.258;2024-01-07T09:33:02;4.73;;;2.67;;
11731;SDS011;5922;53.734;10.258;2024-01-07T09:35:31;2.77;;;2.10;;
11731;SDS011;5922;53.734;10.258;2024-01-07T09:37:59;3.10;;;2.40;;
11731;SDS011;5922;53.734;10.258;2024-01-07T09:40:26;3.77;;;2.10;;
11731;SDS011;5922;53.734;10.258;2024-01-07T09:42:54;4.40;;;2.40;;
11731;SDS011;5922;53.734;10.258;2024-01-07T09:45:22;2.77;;;2.10;;
11731;SDS011;5922;53.734;10.258;2024-01-07T09:47:49;3.87;;;2.47;;
11731;SDS011;5922;53.734;10.258;2024-01-07T09:50:16;2.83;;;2.13;;
11731;SDS011;5922;53.734;10.258;2024-01-07T09:52:45;3.03;;;2.23;;
11731;SDS011;5922;53.734;10.258;2024-01-07T09:55:13;3.60;;;1.83;;
11731;SDS011;5922;53.734;10.258;2024-01-07T09:57:43;3.43;;;2.23;;
11731;SDS011;5922;53.734;10.258;2024-01-07T10:00:11;5.10;;;2.60;;
11731;SDS011;5922;53.734;10.258;2024-01-07T10:02:42;3.43;;;2.63;;
11731;SDS011;5922;53.734;10.258;2024-01-07T10:05:09;3.30;;;2.33;;
11731;SDS011;5922;53.734;10.258;2024-01-07T10:07:36;2.63;;;2.00;;
11731;SDS011;5922;53.734;10.258;2024-01-07T10:10:12;3.20;;;2.20;;
11731;SDS011;5922;53.734;10.258;2024-01-07T10:12:39;4.10;;;2.40;;
11731;SDS011;5922;53.734;10.258;2024-01-07T10:15:06;2.93;;;2.07;;
11731;SDS011;5922;53.734;10.258;2024-01-07T10:17:34;3.37;;;2.27;;
11731;SDS011;5922;53.734;10.258;2024-01-07T10:20:01;5.57;;;2.20;;
11731;SDS011;5922;53.734;10.258;2024-01-07T10:22:29;3.13;;;2.00;;
11731;SDS011;5922;53.734;10.258;2024-01-07T10:24:56;4.27;;;2.50;;
11731;SDS011;5922;53.734;10.258;2024-01-07T10:27:25;2.40;;;2.10;;
11731;SDS011;5922;53.734;10.258;2024-01-07T10:29:52;6.33;;;4.37;;
11731;SDS011;5922;53.734;10.258;2024-01-07T10:32:20;3.73;;;2.97;;
11731;SDS011;5922;53.734;10.258;2024-01-07T10:34:48;7.47;;;2.97;;
11731;SDS011;5922;53.734;10.258;2024-01-07T10:37:15;4.27;;;2.80;;
11731;SDS011;5922;53.734;10.258;2024-01-07T10:39:42;4.57;;;2.60;;
11731;SDS011;5922;53.734;10.258;2024-01-07T10:42:10;2.90;;;2.20;;
11731;SDS011;5922;53.734;10.258;2024-01-07T10:44:39;3.13;;;2.37;;
11731;SDS011;5922;53.734;10.258;2024-01-07T10:47:06;3.37;;;2.60;;
11731;SDS011;5922;53.734;10.258;2024-01-07T10:49:34;4.97;;;2.60;;
11731;SDS011;5922;53.734;10.258;2024-01-07T10:52:02;5.03;;;2.60;;
11731;SDS011;5922;53.734;10.258;2024-01-07T10:54:30;3.30;;;2.40;;
11731;SDS011;5922;53.734;10.258;2024-01-07T10:56:59;3.27;;;2.60;;
11731;SDS011;5922;53.734;10.258;2024-01-07T10:59:26;4.90;;;2.73;;
11731;SDS011;5922;53.734;10.258;2024-01-07T11:01:55;3.47;;;2.67;;
11731;SDS011;5922;53.734;10.258;2024-01-07T11:04:23;2.33;;;2.07;;
11731;SDS011;5922;53.734;10.258;2024-01-07T11:06:55;3.53;;;2.23;;
11731;SDS011;5922;53.734;10.258;2024-01-07T11:09:35;5.17;;;2.50;;
11731;SDS011;5922;53.734;10.258;2024-01-07T11:12:03;3.23;;;2.30;;
11731;SDS011;5922;53.734;10.258;2024-01-07T11:14:34;3.90;;;2.30;;
11731;SDS011;5922;53.734;10.258;2024-01-07T11:17:04;4.93;;;2.50;;
11731;SDS011;5922;53.734;10.258;2024-01-07T11:19:31;3.73;;;2.10;;
11731;SDS011;5922;53.734;10.258;2024-01-07T11:24:45;2.50;;;2.30;;
11731;SDS011;5922;53.734;10.258;2024-01-07T11:27:12;2.80;;;2.10;;
11731;SDS011;5922;53.734;10.258;2024-01-07T11:29:40;2.70;;;1.90;;
11731;SDS011;5922;53.734;10.258;2024-01-07T11:32:09;3.47;;;2.17;;
11731;SDS011;5922;53.734;10.258;2024-01-07T11:34:39;3.07;;;2.60;;
11731;SDS011;5922;53.734;10.258;2024-01-07T11:37:09;3.87;;;2.40;;
11731;SDS011;5922;53.734;10.258;2024-01-07T11:39:37;3.10;;;2.20;;
11731;SDS011;5922;53.734;10.258;2024-01-07T11:42:04;3.43;;;2.57;;
11731;SDS011;5922;53.734;10.258;2024-01-07T11:44:33;4.03;;;2.40;;
11731;SDS011;5922;53.734;10.258;2024-01-07T11:47:02;3.13;;;2.23;;
11731;SDS011;5922;53.734;10.258;2024-01-07T11:49:31;2.50;;;2.10;;
11731;SDS011;5922;53.734;10.258;2024-01-07T11:51:59;4.77;;;2.20;;
11731;SDS011;5922;53.734;10.258;2024-01-07T11:54:26;4.20;;;2.47;;
11731;SDS011;5922;53.734;10.258;2024-01-07T11:56:54;3.60;;;2.10;;
11731;SDS011;5922;53.734;10.258;2024-01-07T11:59:22;3.60;;;2.40;;
11731;SDS011;5922;53.734;10.258;2024-01-07T12:01:49;4.83;;;2.20;;
11731;SDS011;5922;53.734;10.258;2024-01-07T12:04:16;3.87;;;2.10;;
11731;SDS011;5922;53.734;10.258;2024-01-07T12:06:45;2.53;;;2.20;;
11731;SDS011;5922;53.734;10.258;2024-01-07T12:09:12;4.47;;;2.60;;
11731;SDS011;5922;53.734;10.258;2024-01-07T12:11:40;3.10;;;2.37;;
11731;SDS011;5922;53.734;10.258;2024-01-07T12:14:07;2.53;;;2.30;;
11731;SDS011;5922;53.734;10.258;2024-01-07T12:16:36;4.60;;;2.37;;
11731;SDS011;5922;53.734;10.258;2024-01-07T12:19:03;2.63;;;2.33;;
11731;SDS011;5922;53.734;10.258;2024-01-07T12:21:30;2.77;;;2.30;;
11731;SDS011;5922;53.734;10.258;2024-01-07T12:23:59;2.57;;;2.10;;
11731;SDS011;5922;53.734;10.258;2024-01-07T12:26:26;2.87;;;2.10;;
11731;SDS011;5922;53.734;10.258;2024-01-07T12:28:54;4.23;;;2.33;;
11731;SDS011;5922;53.734;10.258;2024-01-07T12:31:22;6.30;;;3.23;;
11731;SDS011;5922;53.734;10.258;2024-01-07T12:33:50;6.13;;;3.63;;
11731;SDS011;5922;53.734;10.258;2024-01-07T12:36:19;2.97;;;2.30;;
11731;SDS011;5922;53.734;10.258;2024-01-07T12:38:47;5.93;;;2.00;;
11731;SDS011;5922;53.734;10.258;2024-01-07T12:41:15;3.60;;;2.47;;
11731;SDS011;5922;53.734;10.258;2024-01-07T12:43:43;2.83;;;2.13;;
11731;SDS011;5922;53.734;10.258;2024-01-07T12:46:10;2.67;;;2.00;;
11731;SDS011;5922;53.734;10.258;2024-01-07T12:48:37;2.97;;;2.40;;
11731;SDS011;5922;53.734;10.258;2024-01-07T12:51:05;3.17;;;2.37;;
11731;SDS011;5922;53.734;10.258;2024-01-07T12:53:32;2.60;;;2.03;;
11731;SDS011;5922;53.734;10.258;2024-01-07T12:55:59;4.03;;;2.10;;
11731;SDS011;5922;53.734;10.258;2024-01-07T12:58:28;2.37;;;2.17;;
11731;SDS011;5922;53.734;10.258;2024-01-07T13:00:55;2.97;;;1.80;;
11731;SDS011;5922;53.734;10.258;2024-01-07T13:03:22;1.67;;;1.50;;
11731;SDS011;5922;53.734;10.258;2024-01-07T13:05:50;2.63;;;1.57;;
11731;SDS011;5922;53.734;10.258;2024-01-07T13:08:18;2.00;;;1.80;;
11731;SDS011;5922;53.734;10.258;2024-01-07T13:10:47;2.77;;;1.70;;
11731;SDS011;5922;53.734;10.258;2024-01-07T13:13:14;2.73;;;1.73;;
11731;SDS011;5922;53.734;10.258;2024-01-07T13:15:44;3.03;;;2.00;;
11731;SDS011;5922;53.734;10.258;2024-01-07T13:18:11;2.93;;;1.50;;
11731;SDS011;5922;53.734;10.258;2024-01-07T13:20:38;2.70;;;1.77;;
11731;SDS011;5922;53.734;10.258;2024-01-07T13:23:05;2.77;;;1.53;;
11731;SDS011;5922;53.734;10.258;2024-01-07T13:25:33;2.90;;;1.50;;
11731;SDS011;5922;53.734;10.258;2024-01-07T13:28:00;2.23;;;1.30;;
11731;SDS011;5922;53.734;10.258;2024-01-07T13:30:27;3.00;;;1.73;;
11731;SDS011;5922;53.734;10.258;2024-01-07T13:32:56;1.43;;;1.33;;
11731;SDS011;5922;53.734;10.258;2024-01-07T13:35:23;1.33;;;1.23;;
11731;SDS011;5922;53.734;10.258;2024-01-07T13:37:51;2.10;;;1.40;;
11731;SDS011;5922;53.734;10.258;2024-01-07T13:40:18;1.50;;;1.40;;
11731;SDS011;5922;53.734;10.258;2024-01-07T13:42:45;1.53;;;1.43;;
11731;SDS011;5922;53.734;10.258;2024-01-07T13:45:16;2.07;;;1.77;;
11731;SDS011;5922;53.734;10.258;2024-01-07T13:47:45;2.00;;;1.73;;
11731;SDS011;5922;53.734;10.258;2024-01-07T13:50:14;1.60;;;1.50;;
11731;SDS011;5922;53.734;10.258;2024-01-07T13:52:42;2.40;;;1.50;;
11731;SDS011;5922;53.734;10.258;2024-01-07T13:55:09;3.53;;;1.90;;
11731;SDS011;5922;53.734;10.258;2024-01-07T13:57:38;3.67;;;1.83;;
11731;SDS011;5922;53.734;10.258;2024-01-07T14:00:07;2.53;;;2.33;;
11731;SDS011;5922;53.734;10.258;2024-01-07T14:02:35;2.40;;;1.70;;
11731;SDS011;5922;53.734;10.258;2024-01-07T14:05:04;3.20;;;1.83;;
11731;SDS011;5922;53.734;10.258;2024-01-07T14:07:38;2.20;;;1.80;;
11731;SDS011;5922;53.734;10.258;2024-01-07T14:10:06;3.93;;;2.17;;
11731;SDS011;5922;53.734;10.258;2024-01-07T14:12:44;3.57;;;2.33;;
11731;SDS011;5922;53.734;10.258;2024-01-07T14:15:24;3.70;;;2.10;;
11731;SDS011;5922;53.734;10.258;2024-01-07T14:17:51;2.17;;;1.73;;
11731;SDS011;5922;53.734;10.258;2024-01-07T14:20:19;2.23;;;1.90;;
11731;SDS011;5922;53.734;10.258;2024-01-07T14:22:53;4.40;;;1.70;;
11731;SDS011;5922;53.734;10.258;2024-01-07T14:25:21;6.10;;;2.00;;
11731;SDS011;5922;53.734;10.258;2024-01-07T14:30:40;2.50;;;1.80;;
11731;SDS011;5922;53.734;10.258;2024-01-07T14:33:14;1.80;;;1.60;;
11731;SDS011;5922;53.734;10.258;2024-01-07T14:35:41;2.33;;;1.60;;
11731;SDS011;5922;53.734;10.258;2024-01-07T14:38:10;2.03;;;1.63;;
11731;SDS011;5922;53.734;10.258;2024-01-07T14:40:59;2.00;;;1.70;;
11731;SDS011;5922;53.734;10.258;2024-01-07T14:43:27;2.27;;;1.93;;
11731;SDS011;5922;53.734;10.258;2024-01-07T14:45:54;2.63;;;2.10;;
11731;SDS011;5922;53.734;10.258;2024-01-07T14:48:27;4.47;;;2.77;;
11731;SDS011;5922;53.734;10.258;2024-01-07T14:51:01;3.47;;;1.60;;
11731;SDS011;5922;53.734;10.258;2024-01-07T14:53:33;2.60;;;1.83;;
11731;SDS011;5922;53.734;10.258;2024-01-07T14:56:00;4.30;;;2.23;;
11731;SDS011;5922;53.734;10.258;2024-01-07T14:58:28;2.10;;;1.90;;